createdAt,value
2018-05-21T00:00:32.910Z,101643.05
2018-05-21T00:03:02.031Z,101639.14
2018-05-21T00:05:30.365Z,101633.85
2018-05-21T00:07:58.746Z,101639.72
2018-05-21T00:10:27.087Z,101638.80
2018-05-21T00:12:55.451Z,101633.84
2018-05-21T00:15:23.807Z,101633.05
2018-05-21T00:17:52.170Z,101632.20
2018-05-21T00:20:20.530Z,101626.73
2018-05-21T00:22:49.638Z,101617.89
2018-05-21T00:25:18.778Z,101620.31
2018-05-21T00:27:47.101Z,101611.08
2018-05-21T00:30:15.480Z,101616.81
2018-05-21T00:32:43.870Z,101612.35
2018-05-21T00:35:12.992Z,101613.63
2018-05-21T00:37:41.366Z,101613.70
2018-05-21T00:40:09.734Z,101613.69
2018-05-21T00:42:38.833Z,101612.50
2018-05-21T00:45:07.184Z,101611.22
2018-05-21T00:47:35.557Z,101606.37
2018-05-21T00:50:03.938Z,101605.42
2018-05-21T00:52:32.278Z,101604.60
2018-05-21T00:55:18.201Z,101604.27
2018-05-21T00:57:46.519Z,101603.84
2018-05-21T01:00:14.864Z,101603.55
2018-05-21T01:02:43.301Z,101596.41
2018-05-21T01:05:12.362Z,101604.09
2018-05-21T01:07:40.742Z,101605.48
2018-05-21T01:10:09.116Z,101602.39
2018-05-21T01:12:37.475Z,101603.36
2018-05-21T01:15:06.598Z,101600.27
2018-05-21T01:17:34.966Z,101599.89
2018-05-21T01:20:04.073Z,101597.23
2018-05-21T01:22:32.446Z,101598.55
2018-05-21T01:25:00.797Z,101601.27
2018-05-21T01:27:29.930Z,101603.92
2018-05-21T01:29:58.288Z,101598.67
2018-05-21T01:32:27.387Z,101601.73
2018-05-21T01:34:56.517Z,101605.17
2018-05-21T01:37:24.882Z,101593.67
2018-05-21T01:39:53.215Z,101599.95
2018-05-21T01:42:21.586Z,101599.87
2018-05-21T01:44:49.895Z,101602.59
2018-05-21T01:47:18.997Z,101603.53
2018-05-21T01:49:47.384Z,101602.14
2018-05-21T01:52:15.712Z,101603.98
2018-05-21T01:54:44.085Z,101617.09
2018-05-21T01:57:12.403Z,101608.27
2018-05-21T01:59:40.775Z,101616.73
2018-05-21T02:02:09.907Z,101599.56
2018-05-21T02:04:38.253Z,101608.09
2018-05-21T02:07:06.578Z,101613.91
2018-05-21T02:09:34.948Z,101601.53
2018-05-21T02:12:03.319Z,101602.48
2018-05-21T02:14:31.640Z,101609.97
2018-05-21T02:16:59.986Z,101606.94
2018-05-21T02:19:28.337Z,101609.19
2018-05-21T02:21:56.661Z,101610.47
2018-05-21T02:24:24.999Z,101614.39
2018-05-21T02:26:56.511Z,101608.70
2018-05-21T02:29:24.856Z,101607.39
2018-05-21T02:31:53.278Z,101606.50
2018-05-21T02:34:22.470Z,101604.84
2018-05-21T02:36:51.573Z,101605.27
2018-05-21T02:39:20.029Z,101608.80
2018-05-21T02:41:48.347Z,101606.20
2018-05-21T02:44:16.667Z,101607.92
2018-05-21T02:46:45.089Z,101607.52
2018-05-21T02:49:14.444Z,101603.16
2018-05-21T02:51:42.811Z,101604.03
2018-05-21T02:54:18.349Z,101604.88
2018-05-21T02:56:47.512Z,101601.30
2018-05-21T02:59:16.478Z,101603.11
2018-05-21T03:01:45.818Z,101604.03
2018-05-21T03:04:14.213Z,101605.36
2018-05-21T03:06:43.475Z,101604.48
2018-05-21T03:09:11.844Z,101604.00
2018-05-21T03:11:41.004Z,101602.27
2018-05-21T03:14:09.343Z,101603.99
2018-05-21T03:16:37.924Z,101601.34
2018-05-21T03:19:06.307Z,101597.81
2018-05-21T03:21:34.672Z,101600.50
2018-05-21T03:24:03.109Z,101607.16
2018-05-21T03:26:31.513Z,101606.72
2018-05-21T03:29:02.418Z,101605.39
2018-05-21T03:31:30.797Z,101613.81
2018-05-21T03:33:59.147Z,101609.84
2018-05-21T03:36:27.475Z,101614.70
2018-05-21T03:38:56.774Z,101607.20
2018-05-21T03:41:25.204Z,101611.57
2018-05-21T03:43:53.538Z,101606.24
2018-05-21T03:46:23.348Z,101613.74
2018-05-21T03:48:52.360Z,101617.75
2018-05-21T03:51:20.676Z,101607.20
2018-05-21T03:53:49.249Z,101612.05
2018-05-21T04:02:14.026Z,101603.59
2018-05-21T04:04:43.972Z,101611.89
2018-05-21T04:07:13.299Z,101606.15
2018-05-21T04:09:42.628Z,101606.98
2018-05-21T04:12:11.068Z,101602.09
2018-05-21T04:14:39.409Z,101607.38
2018-05-21T04:17:08.523Z,101602.92
2018-05-21T04:19:37.335Z,101594.97
2018-05-21T04:22:05.718Z,101601.08
2018-05-21T04:24:34.920Z,101601.47
2018-05-21T04:27:03.472Z,101608.92
2018-05-21T04:29:31.992Z,101608.02
2018-05-21T04:32:00.352Z,101611.44
2018-05-21T04:34:28.671Z,101612.69
2018-05-21T04:36:57.134Z,101611.33
2018-05-21T04:39:26.985Z,101615.66
2018-05-21T04:41:56.140Z,101618.23
2018-05-21T04:44:24.955Z,101617.64
2018-05-21T04:46:53.308Z,101611.35
2018-05-21T04:49:21.684Z,101613.47
2018-05-21T04:51:51.056Z,101608.07
2018-05-21T04:54:19.541Z,101611.56
2018-05-21T04:56:47.907Z,101610.95
2018-05-21T04:59:16.424Z,101609.94
2018-05-21T05:01:46.513Z,101609.83
2018-05-21T05:04:14.886Z,101611.92
2018-05-21T05:06:44.246Z,101610.41
2018-05-21T05:09:12.727Z,101606.30
2018-05-21T05:11:41.224Z,101605.20
2018-05-21T05:14:10.202Z,101603.89
2018-05-21T05:16:39.452Z,101607.88
2018-05-21T05:19:07.812Z,101603.53
2018-05-21T05:21:36.230Z,101602.00
2018-05-21T05:24:04.632Z,101598.66
2018-05-21T05:26:33.439Z,101591.73
2018-05-21T05:29:01.740Z,101597.42
2018-05-21T05:31:31.442Z,101598.13
2018-05-21T05:34:00.204Z,101593.43
2018-05-21T05:36:30.270Z,101593.83
2018-05-21T05:38:58.792Z,101590.59
2018-05-21T05:41:28.731Z,101587.85
2018-05-21T05:43:57.108Z,101585.98
2018-05-21T05:46:27.019Z,101582.98
2018-05-21T05:48:55.808Z,101580.83
2018-05-21T05:51:25.740Z,101587.38
2018-05-21T05:53:55.148Z,101583.09
2018-05-21T05:56:24.936Z,101582.39
2018-05-21T05:58:54.459Z,101584.45
2018-05-21T06:01:23.907Z,101586.59
2018-05-21T06:03:52.249Z,101577.11
2018-05-21T06:06:20.667Z,101586.20
2018-05-21T06:08:49.066Z,101578.40
2018-05-21T06:11:17.621Z,101580.55
2018-05-21T06:13:47.300Z,101577.22
2018-05-21T06:16:16.507Z,101575.22
2018-05-21T06:18:44.925Z,101578.56
2018-05-21T06:21:14.082Z,101573.03
2018-05-21T06:23:42.436Z,101570.59
2018-05-21T06:26:16.622Z,101570.75
2018-05-21T06:28:45.768Z,101562.20
2018-05-21T06:31:17.097Z,101563.20
2018-05-21T06:33:45.445Z,101569.19
2018-05-21T06:36:13.803Z,101560.89
2018-05-21T06:38:42.119Z,101558.16
2018-05-21T06:41:10.586Z,101554.38
2018-05-21T06:43:38.907Z,101553.93
2018-05-21T06:46:07.285Z,101555.49
2018-05-21T06:48:35.611Z,101552.20
2018-05-21T06:51:04.753Z,101555.13
2018-05-21T06:53:33.119Z,101549.89
2018-05-21T06:56:01.478Z,101556.23
2018-05-21T06:58:31.339Z,101550.15
2018-05-21T07:00:59.705Z,101547.09
2018-05-21T07:03:29.732Z,101549.92
2018-05-21T07:05:58.067Z,101550.31
2018-05-21T07:08:27.187Z,101549.39
2018-05-21T07:10:55.494Z,101550.49
2018-05-21T07:13:24.774Z,101544.81
2018-05-21T07:15:53.111Z,101537.91
2018-05-21T07:18:22.721Z,101536.95
2018-05-21T07:20:51.840Z,101532.97
2018-05-21T07:23:20.171Z,101540.30
2018-05-21T07:25:48.505Z,101540.70
2018-05-21T07:28:17.694Z,101536.30
2018-05-21T07:30:46.151Z,101536.97
2018-05-21T07:33:14.494Z,101526.81
2018-05-21T07:35:43.627Z,101526.27
2018-05-21T07:38:11.997Z,101530.38
2018-05-21T07:40:41.273Z,101522.35
2018-05-21T07:43:09.602Z,101517.36
2018-05-21T07:45:37.991Z,101517.05
2018-05-21T07:48:06.304Z,101513.84
2018-05-21T07:50:34.768Z,101511.50
2018-05-21T07:53:03.917Z,101500.84
2018-05-21T07:55:33.183Z,101501.37
2018-05-21T07:58:01.543Z,101492.91
2018-05-21T08:00:31.087Z,101494.80
2018-05-21T08:02:59.405Z,101488.48
2018-05-21T08:05:27.804Z,101485.89
2018-05-21T08:07:56.187Z,101491.14
2018-05-21T08:10:24.562Z,101480.45
2018-05-21T08:12:52.912Z,101483.21
2018-05-21T08:15:22.739Z,101477.69
2018-05-21T08:17:51.112Z,101479.02
2018-05-21T08:20:19.471Z,101469.56
2018-05-21T08:22:47.827Z,101474.59
2018-05-21T08:25:16.915Z,101464.92
2018-05-21T08:27:46.041Z,101454.70
2018-05-21T08:30:14.395Z,101456.90
2018-05-21T08:32:42.750Z,101458.27
2018-05-21T08:35:11.096Z,101450.37
2018-05-21T08:37:39.522Z,101451.05
2018-05-21T08:40:07.851Z,101449.56
2018-05-21T08:42:36.227Z,101442.28
2018-05-21T08:45:04.546Z,101444.08
2018-05-21T08:47:33.694Z,101432.91
2018-05-21T08:50:02.023Z,101428.48
2018-05-21T08:52:31.153Z,101432.97
2018-05-21T08:54:59.503Z,101429.47
2018-05-21T08:57:28.651Z,101430.09
2018-05-21T08:59:57.012Z,101441.00
2018-05-21T09:02:25.444Z,101426.08
2018-05-21T09:04:54.571Z,101425.88
2018-05-21T09:07:22.940Z,101424.70
2018-05-21T09:09:51.318Z,101421.06
2018-05-21T09:12:19.655Z,101420.37
2018-05-21T09:14:48.057Z,101412.52
2018-05-21T09:17:17.206Z,101419.57
2018-05-21T09:19:45.626Z,101408.36
2018-05-21T09:22:13.974Z,101423.16
2018-05-21T09:24:42.346Z,101419.11
2018-05-21T09:27:10.731Z,101410.63
2018-05-21T09:29:39.086Z,101401.67
2018-05-21T09:32:08.227Z,101401.95
2018-05-21T09:34:36.578Z,101396.98
2018-05-21T09:37:04.941Z,101395.23
2018-05-21T09:39:33.278Z,101402.36
2018-05-21T09:42:02.479Z,101398.87
2018-05-21T09:44:30.796Z,101393.09
2018-05-21T09:46:59.137Z,101390.00
2018-05-21T09:49:28.270Z,101376.93
2018-05-21T09:51:56.658Z,101364.67
2018-05-21T09:54:25.062Z,101385.23
2018-05-21T09:56:53.398Z,101378.69
2018-05-21T09:59:21.760Z,101372.75
2018-05-21T10:01:50.100Z,101367.80
2018-05-21T10:04:18.512Z,101366.69
2018-05-21T10:06:46.813Z,101355.73
2018-05-21T10:09:15.194Z,101342.39
2018-05-21T10:11:43.550Z,101346.87
2018-05-21T10:14:11.915Z,101351.80
2018-05-21T10:16:41.042Z,101344.45
2018-05-21T10:19:09.423Z,101340.05
2018-05-21T10:21:37.856Z,101335.09
2018-05-21T10:24:07.126Z,101340.02
2018-05-21T10:26:35.490Z,101339.11
2018-05-21T10:29:03.840Z,101332.05
2018-05-21T10:31:32.212Z,101315.45
2018-05-21T10:34:00.580Z,101312.10
2018-05-21T10:36:28.912Z,101311.22
2018-05-21T10:38:57.258Z,101323.66
2018-05-21T10:41:25.617Z,101310.06
2018-05-21T10:43:53.978Z,101300.78
2018-05-21T10:46:22.346Z,101309.39
2018-05-21T10:48:51.478Z,101296.91
2018-05-21T10:51:19.902Z,101303.67
2018-05-21T10:53:48.222Z,101292.33
2018-05-21T10:56:16.656Z,101283.79
2018-05-21T10:58:45.001Z,101292.87
2018-05-21T11:01:13.394Z,101273.84
2018-05-21T11:03:41.775Z,101287.31
2018-05-21T11:06:10.147Z,101277.02
2018-05-21T11:08:38.518Z,101275.75
2018-05-21T11:11:06.855Z,101273.61
2018-05-21T11:13:35.968Z,101274.95
2018-05-21T11:16:04.356Z,101285.49
2018-05-21T11:18:32.714Z,101280.94
2018-05-21T11:21:01.837Z,101261.97
2018-05-21T11:23:30.266Z,101257.68
2018-05-21T11:25:58.605Z,101248.60
2018-05-21T11:28:26.974Z,101258.67
2018-05-21T11:30:55.339Z,101249.64
2018-05-21T11:33:23.786Z,101248.61
2018-05-21T11:35:52.974Z,101235.92
2018-05-21T11:38:22.082Z,101246.03
2018-05-21T11:40:52.345Z,101244.80
2018-05-21T11:43:21.864Z,101240.72
2018-05-21T11:45:53.266Z,101231.94
2018-05-21T11:48:22.423Z,101233.57
2018-05-21T11:50:50.753Z,101239.44
2018-05-21T11:53:19.145Z,101228.24
2018-05-21T11:55:47.492Z,101224.80
2018-05-21T11:58:21.983Z,101222.38
2018-05-21T12:00:50.361Z,101223.11
2018-05-21T12:03:18.686Z,101214.65
2018-05-21T12:05:47.070Z,101205.42
2018-05-21T12:08:15.423Z,101213.58
2018-05-21T12:11:01.047Z,101205.95
2018-05-21T12:16:45.088Z,101189.39
2018-05-21T12:19:14.742Z,101191.00
2018-05-21T12:21:43.085Z,101191.41
2018-05-21T12:24:12.786Z,101190.96
2018-05-21T12:26:42.032Z,101192.53
2018-05-21T12:29:13.386Z,101170.70
2018-05-21T12:31:43.689Z,101175.48
2018-05-21T12:34:13.781Z,101180.05
2018-05-21T12:36:44.000Z,101174.80
2018-05-21T12:39:13.142Z,101182.41
2018-05-21T12:41:42.344Z,101172.30
2018-05-21T12:44:13.901Z,101161.95
2018-05-21T12:46:44.322Z,101160.83
2018-05-21T12:49:12.667Z,101159.19
2018-05-21T12:51:42.236Z,101156.89
2018-05-21T12:54:12.792Z,101154.38
2018-05-21T12:56:42.901Z,101150.72
2018-05-21T12:59:12.188Z,101166.64
2018-05-21T13:01:42.592Z,101156.11
2018-05-21T13:04:15.451Z,101147.45
2018-05-21T13:06:43.823Z,101132.88
2018-05-21T13:09:13.207Z,101132.66
2018-05-21T13:11:42.581Z,101128.79
2018-05-21T13:14:13.596Z,101129.43
2018-05-21T13:16:56.812Z,101126.87
2018-05-21T13:22:01.568Z,101126.97
2018-05-21T13:24:47.253Z,101120.91
2018-05-21T13:27:17.048Z,101130.14
2018-05-21T13:29:47.236Z,101120.08
2018-05-21T13:32:17.337Z,101118.00
2018-05-21T13:34:45.855Z,101110.95
2018-05-21T13:37:15.199Z,101119.74
2018-05-21T13:39:44.561Z,101119.85
2018-05-21T13:42:14.602Z,101112.34
2018-05-21T13:44:43.771Z,101099.54
2018-05-21T13:47:12.120Z,101103.84
2018-05-21T13:49:41.108Z,101097.30
2018-05-21T13:52:10.326Z,101105.85
2018-05-21T13:54:39.140Z,101090.71
2018-05-21T13:57:09.758Z,101089.11
2018-05-21T13:59:38.120Z,101089.91
2018-05-21T14:02:07.345Z,101097.87
2018-05-21T14:04:36.950Z,101085.61
2018-05-21T14:07:05.300Z,101081.49
2018-05-21T14:09:33.672Z,101083.17
2018-05-21T14:12:06.961Z,101076.97
2018-05-21T14:14:35.364Z,101081.59
2018-05-21T14:17:04.479Z,101079.84
2018-05-21T14:19:33.204Z,101066.17
2018-05-21T14:22:02.338Z,101076.27
2018-05-21T14:24:31.512Z,101071.84
2018-05-21T14:27:00.634Z,101066.94
2018-05-21T14:29:29.014Z,101062.86
2018-05-21T14:31:58.155Z,101059.89
2018-05-21T14:34:27.554Z,101048.02
2018-05-21T14:36:59.219Z,101048.83
2018-05-21T14:39:27.979Z,101047.34
2018-05-21T14:41:56.364Z,101047.52
2018-05-21T14:44:25.920Z,101046.40
2018-05-21T14:46:54.538Z,101051.36
2018-05-21T14:49:23.082Z,101042.34
2018-05-21T14:51:51.506Z,101049.78
2018-05-21T14:54:21.137Z,101043.31
2018-05-21T14:56:50.476Z,101035.77
2018-05-21T14:59:20.659Z,101036.80
2018-05-21T15:01:49.784Z,101037.66
2018-05-21T15:04:18.158Z,101027.17
2018-05-21T15:06:47.272Z,101028.64
2018-05-21T15:09:15.645Z,101026.11
2018-05-21T15:11:44.028Z,101028.38
2018-05-21T15:14:12.400Z,101017.30
2018-05-21T15:16:41.074Z,101016.78
2018-05-21T15:19:10.283Z,101015.48
2018-05-21T15:21:40.510Z,101008.39
2018-05-21T15:24:11.540Z,101006.67
2018-05-21T15:26:41.526Z,101011.52
2018-05-21T15:29:11.708Z,101004.88
2018-05-21T15:31:42.654Z,101012.15
2018-05-21T15:34:11.098Z,101009.91
2018-05-21T15:36:40.929Z,101008.41
2018-05-21T15:39:10.005Z,101001.45
2018-05-21T15:41:41.018Z,101008.22
2018-05-21T15:44:12.056Z,100998.94
2018-05-21T15:46:41.214Z,100996.87
2018-05-21T15:49:09.571Z,100998.95
2018-05-21T15:51:37.924Z,100997.94
2018-05-21T15:54:07.242Z,100989.20
2018-05-21T15:56:35.599Z,100989.05
2018-05-21T15:59:04.067Z,100991.72
2018-05-21T16:01:34.375Z,100975.91
2018-05-21T16:04:03.563Z,100977.56
2018-05-21T16:06:32.483Z,100970.12
2018-05-21T16:09:00.857Z,100974.09
2018-05-21T16:11:29.223Z,100984.92
2018-05-21T16:13:57.719Z,100981.92
2018-05-21T16:16:28.066Z,100981.51
2018-05-21T16:18:57.861Z,100970.23
2018-05-21T16:21:27.079Z,100976.66
2018-05-21T16:23:55.759Z,100967.33
2018-05-21T16:26:25.311Z,100954.02
2018-05-21T16:28:53.748Z,100975.98
2018-05-21T16:31:23.072Z,100965.81
2018-05-21T16:33:51.456Z,100967.34
2018-05-21T16:36:20.064Z,100968.83
2018-05-21T16:38:50.756Z,100964.41
2018-05-21T16:41:19.119Z,100960.45
2018-05-21T16:43:50.532Z,100959.52
2018-05-21T16:46:19.731Z,100960.64
2018-05-21T16:48:48.860Z,100959.98
2018-05-21T16:51:18.971Z,100959.56
2018-05-21T16:53:49.996Z,100962.47
2018-05-21T16:56:19.015Z,100962.95
2018-05-21T16:58:47.349Z,100956.30
2018-05-21T17:01:15.750Z,100952.48
2018-05-21T17:03:45.351Z,100957.84
2018-05-21T17:06:14.755Z,100958.95
2018-05-21T17:08:43.919Z,100953.92
2018-05-21T17:11:13.048Z,100949.19
2018-05-21T17:13:41.404Z,100951.17
2018-05-21T17:16:10.217Z,100948.38
2018-05-21T17:18:39.482Z,100951.31
2018-05-21T17:21:08.947Z,100957.98
2018-05-21T17:23:37.939Z,100967.34
2018-05-21T17:26:07.484Z,100962.81
2018-05-21T17:28:36.250Z,100959.59
2018-05-21T17:31:05.194Z,100953.88
2018-05-21T17:33:34.933Z,100953.11
2018-05-21T17:36:05.546Z,100958.70
2018-05-21T17:38:34.088Z,100961.82
2018-05-21T17:41:04.032Z,100954.54
2018-05-21T17:43:33.163Z,100962.07
2018-05-21T17:46:01.696Z,100960.98
2018-05-21T17:48:39.192Z,100956.58
2018-05-21T17:51:08.866Z,100961.44
2018-05-21T17:53:37.668Z,100957.94
2018-05-21T17:56:06.067Z,100951.28
2018-05-21T17:58:35.171Z,100954.86
2018-05-21T18:01:03.744Z,100961.89
2018-05-21T18:03:32.879Z,100953.50
2018-05-21T18:06:01.295Z,100961.23
2018-05-21T18:08:31.295Z,100965.03
2018-05-21T18:10:59.619Z,100966.58
2018-05-21T18:13:28.735Z,100953.72
2018-05-21T18:15:57.097Z,100949.96
2018-05-21T18:18:25.497Z,100953.27
2018-05-21T18:20:53.827Z,100954.45
2018-05-21T18:23:22.234Z,100956.83
2018-05-21T18:25:50.582Z,100959.01
2018-05-21T18:28:18.980Z,100959.86
2018-05-21T18:30:48.122Z,100960.25
2018-05-21T18:33:16.465Z,100959.17
2018-05-21T18:35:45.935Z,100960.80
2018-05-21T18:38:14.283Z,100959.95
2018-05-21T18:40:42.647Z,100960.93
2018-05-21T18:43:11.426Z,100960.61
2018-05-21T18:45:39.803Z,100961.55
2018-05-21T18:48:08.173Z,100962.35
2018-05-21T18:50:36.569Z,100958.73
2018-05-21T18:53:04.934Z,100957.53
2018-05-21T18:55:34.472Z,100961.34
2018-05-21T18:58:02.806Z,100958.48
2018-05-21T19:00:32.111Z,100961.39
2018-05-21T19:03:00.457Z,100954.64
2018-05-21T19:05:28.824Z,100961.71
2018-05-21T19:07:58.197Z,100957.92
2018-05-21T19:10:26.600Z,100973.84
2018-05-21T19:12:54.974Z,100974.33
2018-05-21T19:15:24.102Z,100978.66
2018-05-21T19:17:54.003Z,100979.59
2018-05-21T19:20:22.414Z,100981.61
2018-05-21T19:22:50.782Z,100987.07
2018-05-21T19:25:19.144Z,100985.83
2018-05-21T19:27:48.894Z,100982.34
2018-05-21T19:30:17.219Z,100982.25
2018-05-21T19:32:45.605Z,100983.58
2018-05-21T19:35:13.989Z,100986.73
2018-05-21T19:37:42.349Z,100989.30
2018-05-21T19:40:10.717Z,100983.45
2018-05-21T19:42:39.081Z,100987.16
2018-05-21T19:45:07.545Z,100982.78
2018-05-21T19:47:35.895Z,100987.26
2018-05-21T19:50:05.498Z,100985.13
2018-05-21T19:52:34.989Z,100980.27
2018-05-21T19:55:06.370Z,100976.47
2018-05-21T19:57:34.732Z,100978.58
2018-05-21T20:00:03.596Z,100979.27
2018-05-21T20:02:31.954Z,100981.09
2018-05-21T20:05:00.631Z,100978.92
2018-05-21T20:07:29.090Z,100973.74
2018-05-21T20:09:57.545Z,100979.17
2018-05-21T20:12:25.890Z,100976.64
2018-05-21T20:14:54.230Z,100978.69
2018-05-21T20:17:23.420Z,100979.22
2018-05-21T20:19:51.755Z,100980.84
2018-05-21T20:22:20.165Z,100978.28
2018-05-21T20:24:49.373Z,100980.63
2018-05-21T20:27:32.867Z,100976.22
2018-05-21T20:30:02.397Z,100981.16
2018-05-21T20:32:33.210Z,100968.45
2018-05-21T20:35:02.317Z,100970.45
2018-05-21T20:37:30.681Z,100965.39
2018-05-21T20:39:59.973Z,100964.75
2018-05-21T20:42:28.341Z,100966.67
2018-05-21T20:44:56.671Z,100970.26
2018-05-21T20:47:25.007Z,100968.46
2018-05-21T20:49:54.866Z,100966.25
2018-05-21T20:52:23.191Z,100970.18
2018-05-21T20:54:51.572Z,100968.56
2018-05-21T20:57:19.950Z,100963.85
2018-05-21T20:59:48.306Z,100961.28
2018-05-21T21:02:16.664Z,100963.98
2018-05-21T21:04:44.995Z,100955.28
2018-05-21T21:07:14.091Z,100958.41
2018-05-21T21:09:43.223Z,100958.03
2018-05-21T21:12:11.582Z,100959.41
2018-05-21T21:14:39.946Z,100960.42
2018-05-21T21:17:09.119Z,100958.38
2018-05-21T21:19:37.445Z,100957.56
2018-05-21T21:22:05.800Z,100956.23
2018-05-21T21:24:34.886Z,100954.81
2018-05-21T21:27:04.048Z,100955.89
2018-05-21T21:29:32.419Z,100954.77
2018-05-21T21:32:01.060Z,100951.20
2018-05-21T21:34:29.394Z,100952.73
2018-05-21T21:36:57.717Z,100954.27
2018-05-21T21:39:26.067Z,100950.91
2018-05-21T21:41:54.393Z,100949.71
2018-05-21T21:44:22.765Z,100953.27
2018-05-21T21:46:51.121Z,100946.83
2018-05-21T21:49:20.268Z,100945.95
2018-05-21T21:51:48.626Z,100943.81
2018-05-21T21:54:16.971Z,100940.61
2018-05-21T21:56:46.135Z,100940.95
2018-05-21T21:59:14.494Z,100941.58
2018-05-21T22:01:42.817Z,100937.05
2018-05-21T22:04:11.993Z,100939.38
2018-05-21T22:06:40.334Z,100934.09
2018-05-21T22:09:08.715Z,100935.02
2018-05-21T22:11:37.052Z,100933.32
2018-05-21T22:14:05.808Z,100933.73
2018-05-21T22:16:34.157Z,100930.73
2018-05-21T22:19:02.540Z,100929.78
2018-05-21T22:21:30.898Z,100929.88
2018-05-21T22:23:59.260Z,100923.85
2018-05-21T22:26:27.608Z,100923.85
2018-05-21T22:28:56.012Z,100924.64
2018-05-21T22:31:24.360Z,100915.37
2018-05-21T22:33:52.739Z,100921.17
2018-05-21T22:36:21.074Z,100919.19
2018-05-21T22:38:49.428Z,100922.31
2018-05-21T22:41:17.790Z,100918.16
2018-05-21T22:43:47.194Z,100917.16
2018-05-21T22:46:16.296Z,100916.09
2018-05-21T22:48:45.430Z,100914.58
2018-05-21T22:51:13.826Z,100915.99
2018-05-21T22:53:42.260Z,100906.75
2018-05-21T22:56:10.600Z,100913.25
2018-05-21T22:58:38.948Z,100909.02
2018-05-21T23:01:07.340Z,100906.66
2018-05-21T23:03:35.689Z,100909.03
2018-05-21T23:06:04.030Z,100902.77
2018-05-21T23:08:33.166Z,100904.77
2018-05-21T23:11:01.504Z,100898.00
2018-05-21T23:13:29.834Z,100898.56
2018-05-21T23:15:58.196Z,100896.62
2018-05-21T23:18:26.542Z,100898.22
2018-05-21T23:20:55.642Z,100901.70
2018-05-21T23:23:24.791Z,100898.27
2018-05-21T23:25:55.434Z,100895.02
2018-05-21T23:28:23.843Z,100889.34
2018-05-21T23:30:52.168Z,100892.14
2018-05-21T23:33:20.559Z,100895.30
2018-05-21T23:35:48.865Z,100894.66
2018-05-21T23:38:18.004Z,100895.09
2018-05-21T23:40:46.358Z,100894.37
2018-05-21T23:43:14.793Z,100889.10
2018-05-21T23:45:43.173Z,100888.00
2018-05-21T23:48:11.543Z,100886.25
2018-05-21T23:50:39.934Z,100887.31
2018-05-21T23:53:08.293Z,100881.59
2018-05-21T23:55:36.609Z,100880.77
2018-05-21T23:58:05.759Z,100880.50
